createdAt,value
2018-05-29T02:42:19.421Z,10.60
2018-05-29T02:44:47.131Z,12.10
2018-05-29T02:47:14.747Z,11.90
2018-05-29T02:49:42.435Z,11.80
2018-05-29T02:52:10.790Z,10.80
2018-05-29T02:54:39.371Z,11.40
2018-05-29T02:57:07.587Z,11.50
2018-05-29T02:59:36.336Z,11.90
2018-05-29T03:02:04.017Z,11.45
2018-05-29T03:04:31.705Z,11.20
2018-05-29T03:06:59.434Z,11.50
2018-05-29T03:09:27.219Z,11.70
2018-05-29T03:19:17.421Z,13.60
2018-05-29T03:31:37.644Z,12.90
2018-05-29T03:36:33.350Z,12.90
2018-05-29T03:41:28.871Z,13.80
2018-05-29T03:56:17.135Z,16.00
2018-05-29T03:58:45.579Z,15.70
2018-05-29T04:01:13.457Z,14.10
2018-05-29T04:06:16.347Z,16.30
2018-05-29T04:13:41.772Z,17.70
2018-05-29T04:18:45.079Z,17.40
2018-05-29T04:21:13.604Z,17.40
2018-05-29T04:31:04.923Z,19.00
2018-05-29T04:38:27.308Z,21.80
2018-05-29T04:40:55.211Z,19.70
2018-05-29T04:43:23.688Z,21.35
2018-05-29T04:48:19.775Z,20.50
2018-05-29T04:50:47.582Z,21.00
2018-05-29T04:53:15.176Z,21.60
2018-05-29T04:55:44.676Z,21.90
2018-05-29T04:58:12.509Z,22.50
2018-05-29T05:00:41.005Z,22.50
2018-05-29T05:03:09.583Z,21.50
2018-05-29T05:05:38.167Z,23.70
2018-05-29T05:08:06.708Z,23.50
2018-05-29T05:10:35.310Z,23.70
2018-05-29T05:13:04.005Z,24.45
2018-05-29T05:15:32.623Z,28.00
2018-05-29T05:18:00.688Z,25.63
2018-05-29T05:20:30.067Z,26.25
2018-05-29T05:22:59.801Z,26.57
2018-05-29T05:25:27.785Z,27.55
2018-05-29T05:27:55.403Z,26.80
2018-05-29T05:30:26.516Z,27.23
2018-05-29T05:32:54.257Z,28.90
2018-05-29T05:35:22.042Z,30.77
2018-05-29T05:37:49.832Z,33.00
2018-05-29T05:40:17.568Z,32.37
2018-05-29T05:42:45.992Z,34.20
2018-05-29T05:45:14.543Z,34.30
2018-05-29T05:47:42.983Z,34.60
2018-05-29T05:50:11.437Z,38.00
2018-05-29T05:52:41.007Z,36.93
2018-05-29T05:55:10.016Z,38.30
2018-05-29T05:57:39.445Z,37.23
2018-05-29T06:00:07.841Z,35.20
2018-05-29T06:02:36.046Z,35.70
2018-05-29T06:05:04.449Z,34.77
2018-05-29T06:07:32.032Z,37.67
2018-05-29T06:09:59.705Z,38.93
2018-05-29T06:12:28.304Z,38.57
2018-05-29T06:14:57.457Z,39.33
2018-05-29T06:17:25.147Z,40.23
2018-05-29T06:19:52.812Z,42.03
2018-05-29T06:22:21.263Z,45.20
2018-05-29T06:24:49.073Z,42.27
2018-05-29T06:27:16.970Z,41.60
2018-05-29T06:29:44.541Z,39.83
2018-05-29T06:32:13.065Z,42.37
2018-05-29T06:34:40.747Z,43.67
2018-05-29T06:37:10.565Z,41.10
2018-05-29T06:39:40.258Z,40.87
2018-05-29T06:42:08.637Z,43.90
2018-05-29T06:44:39.489Z,43.27
2018-05-29T06:47:07.977Z,46.07
2018-05-29T06:49:39.084Z,47.60
2018-05-29T06:52:08.033Z,44.93
2018-05-29T06:54:35.681Z,46.97
2018-05-29T06:57:04.738Z,45.53
2018-05-29T06:59:33.720Z,46.00
2018-05-29T07:02:01.536Z,46.30
2018-05-29T07:04:31.207Z,48.40
2018-05-29T07:06:58.823Z,46.90
2018-05-29T07:09:30.213Z,47.40
2018-05-29T07:11:59.142Z,45.57
2018-05-29T07:14:27.543Z,46.63
2018-05-29T07:16:55.959Z,49.10
2018-05-29T07:19:23.512Z,49.53
2018-05-29T07:21:53.809Z,53.00
2018-05-29T07:24:23.377Z,49.83
2018-05-29T07:26:51.103Z,48.43
2018-05-29T07:29:18.616Z,54.07
2018-05-29T07:31:46.286Z,50.40
2018-05-29T07:34:16.212Z,49.40
2018-05-29T07:36:44.545Z,51.37
2018-05-29T07:39:12.114Z,52.63
2018-05-29T07:41:39.937Z,53.70
2018-05-29T07:44:07.514Z,50.53
2018-05-29T07:46:35.277Z,49.93
2018-05-29T07:49:02.792Z,51.30
2018-05-29T07:51:31.369Z,51.27
2018-05-29T07:53:58.975Z,55.30
2018-05-29T07:56:27.348Z,52.90
2018-05-29T07:58:54.938Z,52.60
2018-05-29T08:01:22.499Z,48.47
2018-05-29T08:03:51.334Z,50.87
2018-05-29T08:06:20.456Z,50.70
2018-05-29T08:08:48.732Z,51.30
2018-05-29T08:11:16.267Z,53.80
2018-05-29T08:13:46.748Z,52.83
2018-05-29T08:16:14.327Z,49.47
2018-05-29T08:18:41.849Z,52.83
2018-05-29T08:21:09.481Z,52.33
2018-05-29T08:23:37.803Z,51.23
2018-05-29T08:26:05.423Z,53.17
2018-05-29T08:28:34.818Z,51.77
2018-05-29T08:31:03.115Z,58.07
2018-05-29T08:33:30.780Z,54.60
2018-05-29T08:35:58.593Z,52.30
2018-05-29T08:38:26.244Z,53.20
2018-05-29T08:40:54.061Z,53.57
2018-05-29T08:43:22.475Z,53.03
2018-05-29T08:45:50.178Z,54.90
2018-05-29T08:48:17.810Z,56.20
2018-05-29T08:50:45.495Z,57.60
2018-05-29T08:53:13.422Z,54.40
2018-05-29T08:55:41.055Z,53.57
2018-05-29T08:58:09.339Z,54.60
2018-05-29T09:00:37.948Z,54.00
2018-05-29T09:03:05.548Z,57.33
2018-05-29T09:05:33.093Z,56.37
2018-05-29T09:08:00.731Z,52.70
2018-05-29T09:10:28.271Z,53.13
2018-05-29T09:12:55.791Z,47.97
2018-05-29T09:15:23.519Z,48.83
2018-05-29T09:17:52.240Z,45.27
2018-05-29T09:22:47.859Z,47.90
2018-05-29T09:25:15.462Z,48.93
2018-05-29T09:40:01.991Z,52.80
2018-05-29T09:42:31.756Z,53.03
2018-05-29T09:49:54.655Z,51.00
2018-05-29T09:52:22.932Z,50.83
2018-05-29T09:54:50.635Z,54.57
2018-05-29T09:57:18.151Z,55.80
2018-05-29T09:59:47.841Z,51.87
2018-05-29T10:02:16.181Z,51.97
2018-05-29T10:04:43.878Z,55.47
2018-05-29T10:07:12.233Z,49.50
2018-05-29T10:09:39.892Z,53.63
2018-05-29T10:14:35.687Z,52.90
2018-05-29T10:17:03.815Z,52.40
2018-05-29T10:19:31.871Z,51.27
2018-05-29T10:22:01.494Z,52.13
2018-05-29T10:26:56.999Z,46.07
2018-05-29T10:29:24.709Z,48.30
2018-05-29T10:31:52.311Z,44.17
2018-05-29T10:34:20.066Z,49.30
2018-05-29T10:36:47.748Z,51.47
2018-05-29T10:39:15.270Z,49.20
2018-05-29T10:41:42.836Z,51.47
2018-05-29T10:49:06.193Z,48.70
2018-05-29T10:56:29.119Z,45.40
2018-05-29T10:58:57.609Z,37.80
2018-05-29T11:01:25.261Z,31.70
2018-05-29T11:06:20.074Z,37.07
2018-05-29T11:08:49.071Z,36.73
2018-05-29T11:11:17.783Z,41.97
2018-05-29T11:13:45.351Z,40.70
2018-05-29T11:16:12.910Z,39.50
2018-05-29T11:35:57.150Z,35.77
2018-05-29T11:38:24.882Z,33.47
2018-05-29T11:40:53.367Z,28.70
2018-05-29T11:48:16.069Z,22.50
2018-05-29T11:50:44.191Z,19.83
2018-05-29T11:55:39.087Z,23.03
2018-05-29T11:58:06.728Z,23.00
2018-05-29T12:00:34.502Z,23.20
2018-05-29T12:05:29.399Z,24.57
2018-05-29T12:08:00.592Z,27.13
2018-05-29T12:10:28.194Z,21.77
2018-05-29T12:15:25.013Z,24.67
2018-05-29T12:17:53.597Z,24.60
2018-05-29T12:22:48.909Z,23.40
2018-05-29T12:35:27.173Z,26.83
2018-05-29T12:37:55.047Z,30.73
2018-05-29T12:40:23.612Z,26.50
2018-05-29T12:42:54.477Z,34.83
2018-05-29T12:45:23.867Z,34.40
2018-05-29T12:47:52.212Z,41.20
2018-05-29T12:50:21.604Z,41.57
2018-05-29T12:52:49.892Z,39.80
2018-05-29T12:55:18.226Z,39.57
2018-05-29T13:05:09.405Z,42.60
2018-05-29T13:07:40.226Z,41.30
2018-05-29T13:10:07.771Z,37.00
2018-05-29T13:12:35.391Z,34.60
2018-05-29T13:15:04.620Z,35.33
2018-05-29T13:17:32.125Z,38.30
2018-05-29T13:20:00.567Z,34.80
2018-05-29T13:22:34.193Z,28.67
2018-05-29T13:25:03.904Z,29.40
2018-05-29T13:27:32.199Z,25.00
2018-05-29T13:30:04.767Z,20.93
2018-05-29T13:32:42.205Z,19.87
2018-05-29T13:35:09.794Z,17.40
2018-05-29T13:37:37.323Z,21.80
2018-05-29T13:40:05.107Z,22.90
2018-05-29T13:42:32.639Z,23.23
2018-05-29T13:45:01.090Z,28.53
2018-05-29T13:47:30.596Z,30.30
2018-05-29T13:49:58.941Z,27.07
2018-05-29T13:52:26.545Z,29.43
2018-05-29T13:54:55.044Z,25.77
2018-05-29T13:57:22.552Z,24.23
2018-05-29T13:59:50.165Z,26.10
2018-05-29T14:02:18.233Z,21.43
2018-05-29T14:04:45.996Z,16.97
2018-05-29T14:07:13.511Z,16.20
2018-05-29T14:09:41.037Z,15.40
2018-05-29T14:12:08.544Z,13.23
2018-05-29T14:14:36.819Z,13.93
2018-05-29T14:17:04.345Z,10.70
2018-05-29T14:19:31.867Z,11.40
2018-05-29T14:21:59.383Z,11.90
2018-05-29T14:24:27.048Z,10.77
2018-05-29T14:26:54.554Z,10.93
2018-05-29T14:29:23.827Z,11.50
2018-05-29T14:31:53.244Z,10.30
2018-05-29T14:36:47.889Z,9.15
2018-05-29T14:39:17.018Z,9.20
2018-05-29T14:41:44.529Z,9.17
2018-05-29T16:06:09.428Z,6.17
2018-05-29T16:08:37.124Z,6.77
2018-05-29T16:11:04.620Z,6.23
2018-05-29T16:13:32.295Z,5.33
2018-05-29T16:16:01.460Z,6.53
2018-05-29T16:18:29.980Z,6.57
2018-05-29T16:20:57.609Z,6.73
2018-05-29T16:23:26.397Z,7.30
2018-05-29T16:25:54.233Z,6.90
2018-05-29T16:28:22.650Z,7.30
2018-05-29T16:30:51.221Z,6.37
2018-05-29T16:33:19.546Z,7.30
2018-05-29T16:35:47.233Z,6.90
2018-05-29T16:38:15.764Z,7.20
2018-05-29T16:40:43.616Z,7.40
2018-05-29T16:43:11.163Z,6.53
2018-05-29T16:45:38.711Z,6.87
2018-05-29T16:48:07.301Z,7.90
2018-05-29T16:50:36.273Z,7.87
2018-05-29T16:53:05.165Z,8.05
2018-05-29T16:55:35.451Z,7.40
2018-05-29T16:58:03.969Z,7.75
2018-05-29T17:00:32.824Z,8.27
2018-05-29T17:03:00.779Z,8.33
2018-05-29T17:05:28.720Z,8.57
2018-05-29T17:07:57.484Z,8.73
2018-05-29T17:10:26.303Z,8.47
2018-05-29T17:12:53.968Z,8.70
2018-05-29T17:15:23.237Z,8.53
2018-05-29T17:17:51.489Z,8.75
2018-05-29T17:20:19.019Z,8.03
2018-05-29T17:22:46.594Z,8.90
2018-05-29T17:25:14.264Z,7.87
2018-05-29T17:27:42.402Z,8.67
2018-05-29T17:30:10.103Z,8.27
2018-05-29T17:32:57.388Z,8.23
2018-05-29T17:35:26.221Z,8.50
2018-05-29T17:37:54.717Z,7.83
2018-05-29T17:40:23.861Z,8.80
2018-05-29T17:43:07.247Z,8.20
2018-05-29T17:45:37.105Z,8.40
2018-05-29T17:48:04.852Z,8.90
2018-05-29T17:50:32.397Z,9.23
2018-05-29T17:53:08.400Z,10.13
2018-05-29T17:55:41.728Z,10.07
2018-05-29T17:58:10.261Z,10.80
2018-05-29T18:00:45.577Z,10.80
2018-05-29T18:03:14.839Z,8.93
2018-05-29T18:05:42.360Z,9.70
2018-05-29T18:08:10.862Z,10.10
2018-05-29T18:10:38.550Z,9.23
2018-05-29T18:13:06.120Z,11.37
2018-05-29T18:15:34.457Z,9.03
2018-05-29T18:18:02.073Z,9.43
2018-05-29T18:20:29.671Z,10.60
2018-05-29T18:22:57.518Z,9.67
2018-05-29T18:25:25.177Z,10.07
2018-05-29T18:27:54.624Z,9.60
2018-05-29T18:30:22.266Z,9.00
2018-05-29T18:32:50.037Z,7.83
2018-05-29T18:35:17.796Z,8.10
2018-05-29T18:37:46.051Z,10.00
2018-05-29T18:40:14.563Z,9.60
2018-05-29T18:42:43.336Z,9.33
2018-05-29T18:45:10.959Z,10.13
2018-05-29T18:47:38.562Z,10.57
2018-05-29T18:50:07.622Z,9.47
2018-05-29T18:52:35.362Z,11.40
2018-05-29T18:55:03.758Z,11.33
2018-05-29T18:57:32.227Z,12.00
2018-05-29T19:00:02.116Z,11.57
2018-05-29T19:02:30.344Z,12.77
2018-05-29T19:05:00.271Z,13.00
2018-05-29T19:07:31.267Z,12.47
2018-05-29T19:10:02.971Z,13.50
2018-05-29T19:12:30.673Z,13.30
2018-05-29T19:14:59.116Z,13.07
2018-05-29T19:17:26.891Z,13.20
2018-05-29T19:19:55.202Z,13.70
2018-05-29T19:22:22.964Z,13.45
2018-05-29T19:24:50.688Z,14.90
2018-05-29T19:27:19.062Z,14.20
2018-05-29T19:29:47.533Z,15.10
2018-05-29T19:32:16.115Z,15.20
2018-05-29T19:34:43.903Z,14.73
2018-05-29T19:37:12.666Z,15.40
2018-05-29T19:39:40.349Z,15.30
2018-05-29T19:42:09.458Z,13.70
2018-05-29T19:44:44.105Z,14.40
2018-05-29T19:47:11.839Z,15.47
2018-05-29T19:49:39.473Z,15.17
2018-05-29T19:52:07.274Z,15.10
2018-05-29T19:54:35.000Z,14.25
2018-05-29T19:57:02.802Z,14.30
2018-05-29T19:59:30.460Z,14.90
2018-05-29T20:01:58.097Z,14.80
2018-05-29T20:04:25.849Z,16.23
2018-05-29T20:06:53.533Z,14.37
2018-05-29T20:09:22.033Z,15.40
2018-05-29T20:11:49.695Z,13.40
2018-05-29T20:14:17.279Z,14.70
2018-05-29T20:16:45.048Z,15.85
2018-05-29T20:19:12.698Z,13.27
2018-05-29T20:21:41.169Z,15.80
2018-05-29T20:24:08.985Z,14.70
2018-05-29T20:26:37.272Z,15.70
2018-05-29T20:29:05.762Z,15.07
2018-05-29T20:31:34.425Z,14.70
2018-05-29T20:34:02.825Z,13.70
2018-05-29T20:36:30.495Z,15.30
2018-05-29T20:38:58.124Z,14.67
2018-05-29T20:41:25.994Z,13.30
2018-05-29T20:43:53.698Z,14.90
2018-05-29T20:46:21.417Z,14.33
2018-05-29T20:48:49.084Z,14.20
2018-05-29T20:51:16.966Z,11.73
2018-05-29T20:53:44.645Z,12.30
2018-05-29T20:56:12.304Z,12.80
2018-05-29T20:58:40.713Z,11.47
2018-05-29T21:01:08.485Z,11.70
2018-05-29T21:03:37.171Z,11.60
2018-05-29T21:06:04.858Z,11.33
2018-05-29T21:08:32.555Z,12.40
2018-05-29T21:11:00.343Z,10.70
2018-05-29T21:13:28.069Z,12.43
2018-05-29T21:15:55.735Z,11.43
2018-05-29T21:18:23.357Z,13.70
2018-05-29T21:20:50.926Z,13.30
2018-05-29T21:23:19.356Z,13.40
2018-05-29T21:25:46.966Z,13.07
2018-05-29T21:28:14.556Z,12.20
2018-05-29T21:30:42.193Z,13.70
2018-05-29T21:33:10.696Z,14.80
2018-05-29T21:35:38.340Z,13.30
2018-05-29T21:38:06.593Z,13.00
2018-05-29T21:40:34.185Z,15.35
2018-05-29T21:43:01.820Z,15.23
2018-05-29T21:45:29.441Z,14.40
2018-05-29T21:47:57.390Z,16.50
2018-05-29T21:50:25.935Z,15.60
2018-05-29T21:52:54.910Z,15.63
2018-05-29T21:55:23.490Z,15.10
2018-05-29T21:57:51.215Z,16.70
2018-05-29T22:00:18.866Z,16.57
2018-05-29T22:02:46.576Z,16.60
2018-05-29T22:05:14.324Z,17.00
2018-05-29T22:07:42.824Z,17.27
2018-05-29T22:10:10.439Z,16.83
2018-05-29T22:12:38.959Z,17.40
2018-05-29T22:15:07.426Z,15.63
2018-05-29T22:17:35.990Z,16.20
2018-05-29T22:20:03.619Z,17.00
2018-05-29T22:22:31.277Z,17.13
2018-05-29T22:24:58.969Z,16.70
2018-05-29T22:27:26.679Z,16.67
2018-05-29T22:29:54.480Z,17.95
2018-05-29T22:32:22.118Z,16.33
2018-05-29T22:34:49.677Z,18.40
2018-05-29T22:37:17.352Z,18.20
2018-05-29T22:39:45.925Z,16.83
2018-05-29T22:42:14.817Z,17.00
2018-05-29T22:44:42.525Z,17.30
2018-05-29T22:47:10.144Z,17.37
2018-05-29T22:49:39.203Z,16.17
2018-05-29T22:52:06.801Z,17.25
2018-05-29T22:54:35.350Z,18.23
2018-05-29T22:57:02.957Z,18.25
2018-05-29T22:59:30.575Z,17.35
2018-05-29T23:01:58.252Z,18.20
2018-05-29T23:04:25.922Z,16.70
2018-05-29T23:06:53.993Z,17.50
2018-05-29T23:09:21.639Z,16.53
2018-05-29T23:11:49.288Z,16.97
2018-05-29T23:14:17.114Z,17.17
2018-05-29T23:16:44.778Z,16.35
2018-05-29T23:19:12.385Z,17.10
2018-05-29T23:21:40.051Z,15.65
2018-05-29T23:24:08.634Z,16.20
2018-05-29T23:26:36.319Z,16.30
2018-05-29T23:29:05.017Z,17.90
2018-05-29T23:31:32.608Z,17.57
2018-05-29T23:34:00.341Z,17.80
2018-05-29T23:36:28.036Z,18.85
2018-05-29T23:38:55.769Z,16.80
2018-05-29T23:41:23.567Z,18.03
2018-05-29T23:43:51.273Z,17.13
2018-05-29T23:46:18.942Z,16.60
2018-05-29T23:48:46.520Z,17.03
2018-05-29T23:51:14.172Z,17.90
2018-05-29T23:53:41.920Z,18.03
2018-05-29T23:56:10.479Z,16.65
2018-05-29T23:58:38.136Z,18.00
